createdAt,value
2018-11-25T00:01:33.862Z,14.50
2018-11-25T00:04:01.223Z,15.60
2018-11-25T00:06:28.591Z,13.48
2018-11-25T00:08:55.948Z,12.78
2018-11-25T00:11:23.299Z,14.80
2018-11-25T00:13:50.667Z,15.95
2018-11-25T00:16:18.018Z,15.18
2018-11-25T00:18:45.383Z,13.85
2018-11-25T00:21:12.743Z,14.28
2018-11-25T00:23:40.115Z,15.03
2018-11-25T00:26:07.487Z,16.40
2018-11-25T00:28:34.858Z,17.20
2018-11-25T00:31:09.453Z,14.78
2018-11-25T00:33:29.600Z,16.55
2018-11-25T00:35:56.995Z,16.40
2018-11-25T00:38:25.354Z,15.65
2018-11-25T00:40:53.087Z,17.52
2018-11-25T00:43:20.462Z,19.45
2018-11-25T00:45:47.826Z,15.38
2018-11-25T00:48:15.194Z,15.63
2018-11-25T00:50:42.555Z,15.70
2018-11-25T00:53:09.935Z,14.18
2018-11-25T00:55:37.296Z,14.98
2018-11-25T00:58:04.714Z,14.58
2018-11-25T01:00:32.096Z,15.25
2018-11-25T01:02:59.443Z,14.90
2018-11-25T01:05:26.803Z,15.13
2018-11-25T01:07:54.175Z,15.23
2018-11-25T01:10:24.635Z,17.37
2018-11-25T01:12:52.655Z,14.95
2018-11-25T01:15:20.027Z,17.60
2018-11-25T01:17:47.459Z,16.05
2018-11-25T01:20:17.056Z,17.32
2018-11-25T01:22:44.450Z,14.38
2018-11-25T01:25:11.859Z,16.40
2018-11-25T01:27:42.934Z,14.80
2018-11-25T01:30:12.351Z,13.40
2018-11-25T01:32:39.763Z,16.95
2018-11-25T01:35:08.475Z,15.95
2018-11-25T01:37:35.855Z,17.70
2018-11-25T01:40:04.299Z,15.72
2018-11-25T01:42:31.675Z,16.25
2018-11-25T01:44:59.040Z,13.25
2018-11-25T01:47:26.419Z,14.25
2018-11-25T01:49:53.783Z,14.65
2018-11-25T01:52:21.139Z,16.30
2018-11-25T01:54:48.514Z,14.35
2018-11-25T01:57:15.883Z,15.65
2018-11-25T01:59:43.243Z,14.43
2018-11-25T02:02:10.618Z,14.35
2018-11-25T02:04:37.990Z,13.55
2018-11-25T02:07:06.013Z,15.00
2018-11-25T02:09:33.401Z,15.43
2018-11-25T02:12:00.758Z,14.90
2018-11-25T02:14:31.684Z,15.38
2018-11-25T02:16:59.082Z,15.63
2018-11-25T02:19:26.452Z,13.13
2018-11-25T02:21:57.482Z,13.53
2018-11-25T02:24:24.850Z,12.75
2018-11-25T02:26:52.220Z,15.28
2018-11-25T02:29:19.574Z,15.43
2018-11-25T02:31:46.950Z,11.57
2018-11-25T02:34:14.327Z,12.05
2018-11-25T02:36:41.695Z,13.25
2018-11-25T02:39:09.099Z,12.55
2018-11-25T02:41:36.487Z,12.63
2018-11-25T02:44:03.904Z,13.38
2018-11-25T02:46:31.267Z,12.23
2018-11-25T02:48:58.635Z,13.15
2018-11-25T02:51:25.999Z,13.50
2018-11-25T02:53:53.379Z,12.07
2018-11-25T02:56:20.734Z,10.53
2018-11-25T02:58:48.087Z,10.88
2018-11-25T03:01:15.483Z,9.00
2018-11-25T03:03:42.845Z,12.23
2018-11-25T03:06:10.240Z,12.65
2018-11-25T03:08:37.627Z,9.88
2018-11-25T03:11:05.069Z,10.80
2018-11-25T03:13:32.424Z,12.30
2018-11-25T03:15:59.791Z,10.38
2018-11-25T03:18:27.167Z,10.53
2018-11-25T03:20:54.524Z,10.18
2018-11-25T03:23:21.887Z,9.15
2018-11-25T03:26:52.511Z,9.60
2018-11-25T03:29:19.884Z,9.98
2018-11-25T03:31:47.235Z,10.18
2018-11-25T03:34:14.599Z,8.48
2018-11-25T03:36:47.679Z,11.57
2018-11-25T03:39:15.051Z,10.45
2018-11-25T03:41:42.410Z,9.18
2018-11-25T03:44:09.776Z,8.23
2018-11-25T03:46:37.131Z,9.13
2018-11-25T03:49:04.589Z,10.72
2018-11-25T03:51:31.958Z,8.63
2018-11-25T03:53:59.319Z,9.85
2018-11-25T03:56:26.692Z,9.28
2018-11-25T03:58:54.114Z,10.32
2018-11-25T04:01:21.479Z,9.18
2018-11-25T04:03:48.849Z,6.55
2018-11-25T04:06:16.223Z,8.80
2018-11-25T04:08:43.574Z,7.42
2018-11-25T04:11:14.779Z,7.72
2018-11-25T04:13:42.139Z,7.83
2018-11-25T04:16:09.518Z,9.40
2018-11-25T04:18:36.907Z,8.63
2018-11-25T04:21:04.755Z,7.78
2018-11-25T04:23:32.111Z,7.55
2018-11-25T04:25:59.515Z,8.90
2018-11-25T04:28:26.892Z,8.15
2018-11-25T04:30:54.302Z,8.38
2018-11-25T04:33:21.702Z,8.98
2018-11-25T04:35:49.068Z,7.50
2018-11-25T04:38:16.419Z,7.47
2018-11-25T04:40:43.780Z,10.23
2018-11-25T04:43:11.164Z,9.88
2018-11-25T04:45:38.518Z,6.78
2018-11-25T04:48:05.898Z,9.10
2018-11-25T04:50:33.258Z,9.78
2018-11-25T04:53:00.612Z,7.15
2018-11-25T04:55:28.001Z,7.85
2018-11-25T04:57:56.346Z,6.15
2018-11-25T05:00:23.719Z,7.20
2018-11-25T05:02:51.328Z,9.30
2018-11-25T05:05:18.839Z,7.53
2018-11-25T05:07:46.231Z,7.42
2018-11-25T05:10:14.378Z,8.40
2018-11-25T05:12:41.755Z,9.20
2018-11-25T05:15:12.258Z,9.68
2018-11-25T05:17:39.635Z,6.55
2018-11-25T05:20:08.535Z,7.80
2018-11-25T05:22:35.880Z,7.25
2018-11-25T05:25:03.343Z,7.30
2018-11-25T05:27:30.726Z,8.38
2018-11-25T05:29:58.079Z,8.08
2018-11-25T05:32:25.467Z,7.37
2018-11-25T05:34:52.822Z,10.05
2018-11-25T05:37:20.182Z,6.90
2018-11-25T05:39:47.599Z,8.98
2018-11-25T05:42:15.016Z,7.12
2018-11-25T05:44:42.374Z,10.30
2018-11-25T05:47:09.800Z,8.73
2018-11-25T05:49:37.173Z,7.95
2018-11-25T05:52:04.863Z,8.53
2018-11-25T05:54:32.276Z,7.40
2018-11-25T05:56:59.646Z,8.58
2018-11-25T05:59:27.005Z,7.15
2018-11-25T06:01:54.875Z,8.23
2018-11-25T06:04:22.251Z,8.58
2018-11-25T06:06:49.606Z,6.92
2018-11-25T06:09:16.998Z,7.42
2018-11-25T06:11:44.398Z,8.70
2018-11-25T06:14:11.755Z,10.32
2018-11-25T06:16:39.121Z,7.62
2018-11-25T06:19:06.484Z,10.90
2018-11-25T06:21:33.858Z,7.25
2018-11-25T06:24:01.247Z,9.30
2018-11-25T06:26:28.614Z,8.40
2018-11-25T06:28:55.963Z,9.00
2018-11-25T06:31:23.367Z,9.28
2018-11-25T06:33:50.736Z,9.38
2018-11-25T06:36:18.104Z,9.25
2018-11-25T06:38:45.480Z,8.98
2018-11-25T06:41:12.831Z,7.97
2018-11-25T06:43:40.178Z,8.15
2018-11-25T06:46:09.299Z,8.23
2018-11-25T06:48:36.659Z,10.35
2018-11-25T06:51:04.088Z,7.87
2018-11-25T06:53:31.471Z,7.35
2018-11-25T06:55:58.835Z,8.93
2018-11-25T06:58:26.210Z,7.87
2018-11-25T07:00:53.587Z,7.58
2018-11-25T07:03:20.947Z,9.33
2018-11-25T07:05:48.323Z,10.45
2018-11-25T07:08:15.694Z,11.83
2018-11-25T07:10:43.050Z,9.93
2018-11-25T07:13:10.424Z,11.80
2018-11-25T07:15:37.786Z,12.33
2018-11-25T07:18:05.146Z,11.63
2018-11-25T07:20:32.515Z,11.70
2018-11-25T07:22:59.913Z,11.40
2018-11-25T07:25:27.263Z,11.97
2018-11-25T07:27:54.643Z,13.20
2018-11-25T07:30:23.020Z,10.65
2018-11-25T07:32:50.395Z,10.32
2018-11-25T07:35:18.811Z,9.83
2018-11-25T07:37:46.196Z,11.20
2018-11-25T07:40:16.531Z,13.40
2018-11-25T07:42:43.934Z,10.25
2018-11-25T07:45:14.311Z,21.05
2018-11-25T07:47:41.703Z,18.42
2018-11-25T07:50:10.167Z,11.57
2018-11-25T07:52:37.595Z,12.58
2018-11-25T07:55:09.495Z,11.28
2018-11-25T07:57:36.870Z,12.45
2018-11-25T08:00:07.059Z,12.98
2018-11-25T08:02:41.483Z,12.15
2018-11-25T08:05:02.855Z,12.20
2018-11-25T08:07:30.226Z,12.98
2018-11-25T08:09:57.591Z,14.10
2018-11-25T08:12:24.972Z,12.40
2018-11-25T08:14:52.331Z,12.18
2018-11-25T08:17:19.688Z,12.45
2018-11-25T08:19:47.103Z,13.15
2018-11-25T08:22:14.458Z,14.00
2018-11-25T08:24:41.819Z,14.75
2018-11-25T08:27:09.206Z,13.18
2018-11-25T08:29:36.574Z,13.85
2018-11-25T08:32:04.334Z,13.98
2018-11-25T08:34:31.709Z,11.40
2018-11-25T08:36:59.063Z,12.45
2018-11-25T08:39:26.439Z,14.15
2018-11-25T08:41:53.803Z,14.33
2018-11-25T08:44:21.161Z,13.13
2018-11-25T08:46:48.526Z,12.90
2018-11-25T08:49:15.891Z,12.15
2018-11-25T08:51:43.259Z,13.22
2018-11-25T08:54:10.611Z,10.82
2018-11-25T08:56:38.082Z,12.58
2018-11-25T08:59:05.554Z,12.25
2018-11-25T09:01:32.908Z,13.48
2018-11-25T09:04:00.288Z,14.23
2018-11-25T09:06:27.663Z,11.40
2018-11-25T09:08:55.036Z,12.93
2018-11-25T09:11:22.423Z,15.32
2018-11-25T09:13:49.786Z,13.72
2018-11-25T09:16:17.136Z,12.37
2018-11-25T09:18:44.514Z,14.55
2018-11-25T09:21:11.887Z,14.93
2018-11-25T09:23:39.239Z,12.10
2018-11-25T09:26:06.618Z,12.60
2018-11-25T09:28:33.975Z,16.12
2018-11-25T09:31:01.359Z,12.18
2018-11-25T09:33:28.719Z,13.38
2018-11-25T09:35:56.094Z,12.23
2018-11-25T09:38:23.464Z,11.33
2018-11-25T09:40:50.842Z,12.70
2018-11-25T09:43:18.210Z,10.58
2018-11-25T09:45:45.588Z,11.75
2018-11-25T09:48:12.976Z,10.93
2018-11-25T09:50:40.338Z,12.65
2018-11-25T09:53:07.720Z,10.85
2018-11-25T09:55:35.091Z,10.10
2018-11-25T09:58:02.507Z,11.05
2018-11-25T10:00:31.900Z,12.40
2018-11-25T10:02:59.286Z,10.65
2018-11-25T10:05:32.699Z,10.78
2018-11-25T10:08:00.094Z,13.48
2018-11-25T10:10:27.462Z,11.50
2018-11-25T10:12:58.583Z,11.25
2018-11-25T10:15:27.067Z,11.40
2018-11-25T10:17:59.461Z,9.48
2018-11-25T10:20:24.036Z,9.23
2018-11-25T10:22:51.412Z,11.03
2018-11-25T10:25:18.787Z,10.65
2018-11-25T10:27:46.190Z,12.15
2018-11-25T10:30:14.805Z,9.73
2018-11-25T10:32:42.548Z,11.08
2018-11-25T10:35:10.026Z,10.78
2018-11-25T10:37:37.402Z,11.57
2018-11-25T10:40:09.443Z,10.70
2018-11-25T10:42:36.883Z,11.57
2018-11-25T10:45:24.402Z,12.80
2018-11-25T10:47:51.851Z,13.15
2018-11-25T10:50:19.594Z,11.80
2018-11-25T10:52:47.083Z,12.33
2018-11-25T10:55:15.595Z,9.63
2018-11-25T10:57:43.939Z,10.72
2018-11-25T11:00:21.183Z,12.03
2018-11-25T11:02:53.144Z,11.48
2018-11-25T11:05:26.359Z,11.15
2018-11-25T11:07:56.966Z,12.68
2018-11-25T11:10:27.626Z,10.85
2018-11-25T11:12:55.062Z,11.25
2018-11-25T11:15:22.442Z,11.60
2018-11-25T11:17:49.811Z,13.55
2018-11-25T11:20:17.238Z,10.50
2018-11-25T11:22:44.595Z,10.68
2018-11-25T11:25:11.979Z,10.60
2018-11-25T11:27:39.375Z,12.00
2018-11-25T11:30:09.079Z,13.10
2018-11-25T11:32:36.618Z,11.30
2018-11-25T11:35:04.906Z,10.65
2018-11-25T11:37:32.301Z,11.18
2018-11-25T11:39:59.658Z,11.12
2018-11-25T11:42:28.758Z,11.50
2018-11-25T11:44:55.410Z,12.25
2018-11-25T11:47:22.791Z,12.75
2018-11-25T11:49:50.186Z,12.00
2018-11-25T11:52:17.594Z,13.10
2018-11-25T11:54:46.070Z,12.23
2018-11-25T11:57:13.451Z,12.37
2018-11-25T11:59:40.836Z,11.18
2018-11-25T12:02:08.202Z,10.10
2018-11-25T12:04:35.588Z,11.83
2018-11-25T12:07:02.994Z,12.60
2018-11-25T12:09:30.354Z,11.70
2018-11-25T12:11:57.734Z,11.67
2018-11-25T12:14:25.110Z,12.30
2018-11-25T12:16:52.478Z,12.43
2018-11-25T12:19:19.848Z,13.30
2018-11-25T12:21:47.218Z,10.30
2018-11-25T12:24:14.595Z,10.67
2018-11-25T12:26:41.979Z,11.40
2018-11-25T12:29:09.363Z,12.43
2018-11-25T12:31:36.748Z,11.40
2018-11-25T12:34:04.207Z,11.55
2018-11-25T12:36:31.590Z,9.70
2018-11-25T12:38:58.979Z,10.47
2018-11-25T12:41:26.377Z,9.33
2018-11-25T12:43:53.747Z,11.15
2018-11-25T12:46:21.214Z,9.70
2018-11-25T12:48:48.607Z,10.87
2018-11-25T12:51:15.991Z,11.33
2018-11-25T12:53:43.352Z,10.60
2018-11-25T12:56:10.752Z,9.87
2018-11-25T12:58:38.107Z,10.80
2018-11-25T13:01:05.524Z,11.00
2018-11-25T13:03:32.907Z,10.40
2018-11-25T13:06:00.287Z,10.58
2018-11-25T13:08:27.671Z,9.40
2018-11-25T13:10:55.059Z,11.23
2018-11-25T13:13:22.452Z,9.75
2018-11-25T13:15:49.832Z,9.23
2018-11-25T13:18:17.226Z,9.15
2018-11-25T13:20:44.619Z,10.10
2018-11-25T13:23:11.987Z,10.15
2018-11-25T13:25:39.398Z,8.60
2018-11-25T13:28:06.909Z,7.85
2018-11-25T13:30:34.295Z,7.95
2018-11-25T13:33:07.607Z,8.88
2018-11-25T13:35:36.566Z,7.90
2018-11-25T13:38:04.447Z,7.60
2018-11-25T13:40:31.855Z,7.45
2018-11-25T13:42:59.239Z,9.18
2018-11-25T13:45:26.666Z,9.53
2018-11-25T13:47:54.044Z,8.50
2018-11-25T13:50:21.433Z,8.30
2018-11-25T13:52:48.831Z,8.08
2018-11-25T13:55:17.643Z,10.25
2018-11-25T13:57:45.021Z,9.55
2018-11-25T14:00:18.307Z,9.60
2018-11-25T14:02:45.711Z,8.10
2018-11-25T14:05:13.103Z,7.87
2018-11-25T14:07:40.471Z,6.72
2018-11-25T14:10:13.355Z,7.03
2018-11-25T14:12:40.752Z,7.72
2018-11-25T14:15:09.682Z,9.00
2018-11-25T14:17:38.071Z,7.40
2018-11-25T14:20:09.803Z,8.03
2018-11-25T14:22:37.239Z,7.80
2018-11-25T14:25:07.295Z,7.37
2018-11-25T14:27:34.687Z,7.20
2018-11-25T14:30:02.138Z,6.72
2018-11-25T14:32:29.515Z,7.12
2018-11-25T14:34:56.907Z,8.30
2018-11-25T14:37:27.878Z,7.62
2018-11-25T14:39:55.263Z,7.87
2018-11-25T14:42:22.643Z,8.73
2018-11-25T14:44:50.004Z,8.23
2018-11-25T14:47:17.384Z,7.50
2018-11-25T14:49:44.755Z,7.22
2018-11-25T14:52:12.138Z,8.00
2018-11-25T14:54:39.502Z,7.35
2018-11-25T14:57:06.658Z,8.03
2018-11-25T14:59:34.035Z,7.05
2018-11-25T15:02:01.425Z,7.75
2018-11-25T15:04:35.930Z,7.72
2018-11-25T15:06:56.217Z,8.58
2018-11-25T15:09:23.574Z,7.62
2018-11-25T15:11:50.987Z,7.95
2018-11-25T15:14:18.383Z,7.30
2018-11-25T15:16:45.769Z,7.65
2018-11-25T15:19:13.157Z,8.38
2018-11-25T15:21:40.547Z,9.25
2018-11-25T15:24:07.911Z,8.65
2018-11-25T15:26:35.319Z,7.80
2018-11-25T15:29:02.734Z,7.65
2018-11-25T15:31:30.140Z,9.25
2018-11-25T15:33:57.547Z,9.40
2018-11-25T15:36:24.927Z,7.47
2018-11-25T15:38:52.302Z,10.40
2018-11-25T15:41:19.708Z,8.28
2018-11-25T15:43:47.102Z,8.28
2018-11-25T15:46:14.491Z,8.63
2018-11-25T15:48:41.878Z,8.65
2018-11-25T15:51:09.266Z,7.45
2018-11-25T15:53:36.643Z,8.13
2018-11-25T15:56:07.599Z,8.15
2018-11-25T15:58:34.987Z,10.00
2018-11-25T16:01:02.416Z,7.05
2018-11-25T16:03:29.796Z,9.58
2018-11-25T16:06:08.835Z,9.38
2018-11-25T16:08:38.230Z,7.70
2018-11-25T16:11:05.130Z,8.63
2018-11-25T16:13:35.988Z,9.78
2018-11-25T16:16:03.387Z,10.63
2018-11-25T16:18:30.771Z,9.60
2018-11-25T16:20:58.171Z,7.50
2018-11-25T16:23:25.559Z,9.30
2018-11-25T16:25:54.787Z,7.47
2018-11-25T16:28:25.063Z,9.43
2018-11-25T16:30:52.475Z,9.98
2018-11-25T16:33:19.871Z,9.13
2018-11-25T16:35:47.264Z,9.33
2018-11-25T16:38:14.720Z,9.35
2018-11-25T16:40:45.203Z,7.92
2018-11-25T16:43:12.622Z,9.00
2018-11-25T16:45:40.008Z,8.05
2018-11-25T16:48:07.510Z,9.48
2018-11-25T16:50:34.923Z,9.65
2018-11-25T16:53:03.602Z,9.50
2018-11-25T16:55:31.002Z,7.25
2018-11-25T16:57:58.395Z,8.78
2018-11-25T17:00:25.791Z,7.00
2018-11-25T17:02:53.172Z,8.23
2018-11-25T17:05:22.995Z,7.83
2018-11-25T17:07:55.423Z,8.18
2018-11-25T17:10:22.795Z,10.20
2018-11-25T17:12:50.178Z,9.40
2018-11-25T17:15:20.858Z,7.05
2018-11-25T17:17:48.223Z,8.85
2018-11-25T17:20:15.635Z,8.25
2018-11-25T17:22:43.011Z,9.73
2018-11-25T17:25:12.031Z,9.28
2018-11-25T17:27:38.899Z,8.28
2018-11-25T17:30:21.995Z,8.65
2018-11-25T17:32:49.382Z,6.92
2018-11-25T17:35:24.965Z,8.95
2018-11-25T17:37:52.360Z,10.05
2018-11-25T17:40:19.731Z,9.53
2018-11-25T17:42:47.142Z,9.38
2018-11-25T17:45:14.534Z,9.28
2018-11-25T17:47:42.227Z,10.48
2018-11-25T17:50:15.855Z,8.53
2018-11-25T17:52:43.359Z,10.48
2018-11-25T17:55:11.771Z,9.08
2018-11-25T17:57:39.147Z,8.85
2018-11-25T18:00:14.816Z,9.80
2018-11-25T18:02:42.227Z,9.38
2018-11-25T18:05:09.763Z,10.50
2018-11-25T18:07:37.144Z,9.83
2018-11-25T18:10:06.347Z,10.93
2018-11-25T18:12:33.763Z,8.58
2018-11-25T18:15:01.255Z,11.18
2018-11-25T18:17:28.950Z,10.70
2018-11-25T18:19:56.608Z,10.90
2018-11-25T18:22:26.761Z,10.23
2018-11-25T18:24:54.337Z,9.78
2018-11-25T18:27:21.763Z,9.90
2018-11-25T18:29:49.175Z,9.40
2018-11-25T18:32:16.579Z,10.82
2018-11-25T18:34:44.129Z,10.60
2018-11-25T18:37:11.728Z,11.05
2018-11-25T18:39:39.270Z,10.72
2018-11-25T18:42:07.088Z,9.43
2018-11-25T18:44:34.889Z,10.90
2018-11-25T18:47:02.486Z,10.03
2018-11-25T18:49:30.001Z,11.00
2018-11-25T18:52:04.935Z,10.65
2018-11-25T18:54:25.183Z,9.15
2018-11-25T18:56:52.708Z,10.98
2018-11-25T18:59:20.646Z,10.23
2018-11-25T19:01:55.952Z,10.85
2018-11-25T19:04:23.592Z,9.28
2018-11-25T19:06:51.514Z,10.20
2018-11-25T19:09:19.183Z,9.53
2018-11-25T19:11:46.792Z,9.18
2018-11-25T19:14:15.429Z,11.20
2018-11-25T19:16:44.110Z,10.55
2018-11-25T19:19:13.814Z,10.82
2018-11-25T19:21:43.421Z,9.93
2018-11-25T19:24:13.102Z,9.20
2018-11-25T19:26:42.924Z,9.73
2018-11-25T19:29:11.856Z,9.55
2018-11-25T19:31:41.371Z,9.90
2018-11-25T19:34:11.347Z,11.10
2018-11-25T19:36:44.726Z,9.18
2018-11-25T19:39:14.661Z,9.13
2018-11-25T19:41:48.030Z,10.93
2018-11-25T19:44:17.878Z,9.73
2018-11-25T19:46:47.529Z,9.05
2018-11-25T19:49:17.377Z,9.28
2018-11-25T19:51:50.670Z,10.53
2018-11-25T19:54:20.671Z,9.50
2018-11-25T19:56:50.398Z,11.20
2018-11-25T19:59:20.383Z,9.35
2018-11-25T20:01:50.103Z,11.00
2018-11-25T20:04:20.085Z,10.38
2018-11-25T20:06:49.859Z,11.45
2018-11-25T20:10:23.518Z,10.00
2018-11-25T20:12:54.788Z,9.23
2018-11-25T20:15:24.827Z,11.63
2018-11-25T20:17:54.832Z,10.38
2018-11-25T20:20:27.466Z,10.43
2018-11-25T20:22:57.245Z,11.93
2018-11-25T20:25:30.568Z,11.00
2018-11-25T20:28:00.345Z,8.88
2018-11-25T20:30:31.985Z,11.43
2018-11-25T20:33:06.905Z,10.03
2018-11-25T20:35:36.920Z,9.58
2018-11-25T20:38:12.181Z,10.85
2018-11-25T20:40:42.216Z,9.88
2018-11-25T20:43:11.951Z,8.95
2018-11-25T20:45:47.416Z,10.25
2018-11-25T20:48:17.066Z,10.93
2018-11-25T20:50:46.492Z,10.82
2018-11-25T20:53:20.805Z,9.83
2018-11-25T20:55:49.895Z,10.53
2018-11-25T20:58:19.366Z,11.45
2018-11-25T21:00:48.889Z,10.80
2018-11-25T21:03:18.554Z,10.05
2018-11-25T21:05:48.170Z,10.93
2018-11-25T21:08:17.669Z,12.00
2018-11-25T21:10:47.346Z,9.40
2018-11-25T21:13:16.516Z,11.53
2018-11-25T21:15:46.058Z,10.10
2018-11-25T21:18:18.810Z,10.28
2018-11-25T21:20:51.283Z,12.37
2018-11-25T21:23:14.194Z,13.18
2018-11-25T21:25:41.809Z,9.15
2018-11-25T21:28:09.484Z,11.50
2018-11-25T21:30:37.025Z,10.63
2018-11-25T21:33:05.170Z,8.68
2018-11-25T21:35:32.535Z,12.20
2018-11-25T21:37:59.883Z,11.08
2018-11-25T21:40:27.247Z,11.35
2018-11-25T21:42:54.613Z,12.90
2018-11-25T21:45:25.511Z,10.70
2018-11-25T21:47:52.895Z,10.35
2018-11-25T21:50:22.554Z,11.33
2018-11-25T21:52:49.932Z,10.88
2018-11-25T21:55:17.600Z,9.40
2018-11-25T21:57:44.986Z,10.00
2018-11-25T22:00:13.619Z,10.08
2018-11-25T22:02:40.976Z,12.60
2018-11-25T22:05:09.347Z,10.20
2018-11-25T22:07:36.727Z,10.10
2018-11-25T22:10:05.594Z,8.85
2018-11-25T22:12:32.974Z,9.33
2018-11-25T22:15:00.324Z,8.58
2018-11-25T22:17:27.690Z,9.90
2018-11-25T22:19:55.051Z,10.15
2018-11-25T22:22:22.402Z,9.38
2018-11-25T22:24:49.752Z,8.85
2018-11-25T22:27:17.130Z,10.40
2018-11-25T22:29:44.483Z,10.38
2018-11-25T22:32:11.835Z,10.43
2018-11-25T22:34:39.194Z,8.70
2018-11-25T22:37:06.591Z,9.70
2018-11-25T22:39:33.943Z,10.60
2018-11-25T22:42:01.315Z,9.15
2018-11-25T22:44:28.678Z,8.90
2018-11-25T22:46:56.042Z,8.00
2018-11-25T22:49:23.439Z,10.20
2018-11-25T22:51:50.791Z,8.15
2018-11-25T22:54:21.335Z,9.28
2018-11-25T22:56:48.694Z,7.60
2018-11-25T22:59:16.051Z,9.33
2018-11-25T23:01:43.402Z,9.08
2018-11-25T23:04:23.002Z,9.45
2018-11-25T23:07:02.982Z,10.25
2018-11-25T23:09:30.370Z,9.73
2018-11-25T23:11:57.703Z,8.85
2018-11-25T23:14:25.055Z,9.10
2018-11-25T23:16:52.454Z,6.78
2018-11-25T23:19:19.838Z,10.55
2018-11-25T23:21:47.210Z,7.65
2018-11-25T23:24:14.572Z,8.35
2018-11-25T23:26:41.919Z,10.23
2018-11-25T23:29:09.299Z,9.00
2018-11-25T23:31:36.687Z,9.35
2018-11-25T23:34:05.447Z,9.20
2018-11-25T23:36:32.786Z,9.25
2018-11-25T23:39:00.166Z,8.30
2018-11-25T23:41:27.523Z,9.85
2018-11-25T23:43:54.882Z,9.58
2018-11-25T23:46:22.247Z,10.00
2018-11-25T23:51:43.796Z,8.07
2018-11-25T23:57:09.914Z,9.90
2018-11-25T23:59:37.367Z,9.43
